Etusivu
METAR-TAF:

METAR-TAF

Lentoasemat :

Esbjerg, Tanska

Leveyspiiri: 55-32N, Pituuspiiri: 008-34E, korkeus merenpinnasta: 30 m

Tämänhetkinen sää

Tämä raportti tehtiin 35 minuuttia sitten, kello 23.50 UTC
Tuuli 16 kn lännestä/luoteesta
Lämpötila 5°C
Kosteus 81%
Ilmanpaine 1011 hPa
Näkyvyys 10 km tai enemmän
tihkusadetta

METAR: EKEB 192350Z AUTO 29016KT 9999NDV DZ BKN032/// 05/02 Q1011

Aika: 01:25 (00:25 UTC)

Sääennuste

Tämä raportti tehtiin 7 tuntia ja 14 minuuttia sitten, kello 17.11 UTC
Ennuste voimassa 19. päivästä klo 18 UTC - 19. päivään klo 23 UTC
Tuuli 8 kn luoteesta
Näkyvyys 10 km tai enemmän
Hajanaisia pilviä 3000 ft:n korkeudessa
Ajoittain
19. päivästä klo 18 UTC - 19. päivään klo 23 UTC
Hajonneita pilviä 1400 ft:n korkeudessa
Hajanaisia pilviä 2000 ft:n korkeudessa, Cumulonimbus.
vesikuuroja

TAF: EKEB 191711Z 1918/1923 31008KT 9999 SCT030 TEMPO 1918/1923 SHRA BKN014 SCT020CB

Säähavainnot ja -ennusteet yli 4000 lentoasemalta (METAR- ja TAF-raportit).

Käytössä olevat sääasemat on merkitty karttaan keltaisilla ja punaisilla pisteillä.

Aseta hiiri pisteen päälle nähdäksesi sääaseman nimen.

Klikkaa sitten nähdäksesi säähavainnot ja -ennusteet.

Kartan vaihtaminen: klikkaa mustalla rastilla varustettuja vihreitä pisteitä, niin voit zoomata sisään; viivalla varustettua vihreää pistettä, niin voit zoomata ulos tai vihreitä nuolia, niin pääset viereisille kartoille.


METAR-TAF: